Port Imperial New Jersey — WBR3133 — position and weather

sailwx.info

Track history (hours):
 
Tides and Currents Weather Stations Pressure Air Temp Water Temp Dewpoint Dewpoint Depression Visibility Wind Speed Wind Dir Waves Ship Positions

Port Imperial New Jersey

Owner: PORT IMPERIAL FERRY CORP, WEEHAWKEN, NJ. More information available from US FCC via Universal Licensing System and Coast Guard Vessel Documentation Center.

Last reported at 2017-Nov-29 02:18 UTC. Time now 2018-Feb-23 18:38 UTC.
Position N 40°44' W 074°02'.
Warning: this ship's position is months out of date.

Date/timePositionNaut miles runAvg speedWind from/ knotsBaromVisibWave heightAir tempDewpointWater temp
2017-Nov-29 02:18N 40°44' W 074°02'1 4.0
2017-Nov-29 02:00N 40°43' W 074°01'0 0.0
2017-Nov-29 01:30N 40°43' W 074°01'0 0.0
2017-Nov-29 01:00N 40°43' W 074°01'0 0.0
2017-Nov-29 00:30N 40°43' W 074°01'0 0.0
2017-Nov-29 00:01N 40°43' W 074°01'0 0.0
2017-Nov-28 23:30N 40°43' W 074°01'0 0.1
2017-Nov-28 23:00N 40°43' W 074°01'0 0.1
2017-Nov-28 22:30N 40°43' W 074°01'0 0.2
2017-Nov-28 22:00N 40°43' W 074°01'0 0.1
2017-Nov-28 21:30N 40°43' W 074°01'0 0.1
2017-Nov-28 21:00N 40°43' W 074°01'0 0.3
2017-Nov-28 20:31N 40°43' W 074°01'0 0.4
2017-Nov-28 20:01N 40°43' W 074°01'0 0.5
2017-Nov-28 19:30N 40°43' W 074°01'0 0.3
2017-Nov-28 19:00N 40°43' W 074°01'0 0.3
2017-Nov-28 18:30N 40°43' W 074°01'0 0.2
2017-Nov-28 18:00N 40°43' W 074°01'0 0.0
2017-Nov-28 17:30N 40°43' W 074°01'0 0.1
2017-Nov-28 17:00N 40°43' W 074°01'0 0.1
2017-Nov-28 16:30N 40°43' W 074°01'0 0.1
2017-Nov-28 16:00N 40°43' W 074°01'0 0.2
2017-Nov-28 15:00N 40°43' W 074°01'0 0.3
2017-Nov-28 14:30N 40°43' W 074°01'0 0.4
2017-Nov-28 14:00N 40°43' W 074°01'0 0.6
2017-Nov-28 13:30N 40°43' W 074°01'0 0.2
2017-Nov-28 13:00N 40°43' W 074°01'0 0.1
2017-Nov-28 12:30N 40°43' W 074°01'0 0.3
2017-Nov-28 12:00N 40°43' W 074°01'1 1.3
2017-Nov-28 11:30N 40°43' W 074°02'3 6.3
2017-Nov-28 11:00N 40°46' W 074°01'0 0.0
2017-Nov-28 02:26N 40°46' W 074°01'4 8.2
2017-Nov-28 02:00N 40°43' W 074°01'0 0.1
2017-Nov-28 01:30N 40°43' W 074°01'0 0.3
2017-Nov-28 01:00N 40°43' W 074°01'0 0.9
2017-Nov-28 00:30N 40°43' W 074°02'0 0.9
2017-Nov-28 00:00N 40°43' W 074°01'0 0.1
2017-Nov-27 23:30N 40°43' W 074°01'0 0.1
2017-Nov-27 23:00N 40°43' W 074°01'0 0.2
2017-Nov-27 22:30N 40°43' W 074°01'0 0.1
2017-Nov-27 22:00N 40°43' W 074°01'0 0.1
2017-Nov-27 21:30N 40°43' W 074°01'0 0.3
2017-Nov-27 21:00N 40°43' W 074°01'0 0.1
2017-Nov-27 20:30N 40°43' W 074°01'0 0.1
2017-Nov-27 20:00N 40°43' W 074°01'0 0.1
2017-Nov-27 19:30N 40°43' W 074°01'0 0.4
2017-Nov-27 19:00N 40°43' W 074°01'0 0.5
2017-Nov-27 18:30N 40°43' W 074°01'0 0.5
2017-Nov-27 18:00N 40°43' W 074°01'0 0.1
2017-Nov-27 17:30N 40°43' W 074°01'0 0.1
2017-Nov-27 17:00N 40°43' W 074°01'0 0.1
2017-Nov-27 16:30N 40°43' W 074°01'0 0.4
2017-Nov-27 16:00N 40°43' W 074°01'0 0.0
2017-Nov-27 15:30N 40°43' W 074°01'0 0.0
2017-Nov-27 15:01N 40°43' W 074°01'0 0.1
2017-Nov-27 14:30N 40°43' W 074°01'0 0.6
2017-Nov-27 14:00N 40°43' W 074°01'0 0.6
2017-Nov-27 13:30N 40°43' W 074°01'0 0.1
2017-Nov-27 13:00N 40°43' W 074°01'0 0.2
2017-Nov-27 12:30N 40°43' W 074°01'0 0.2
2017-Nov-27 12:00N 40°43' W 074°01'1 1.2
2017-Nov-27 11:30N 40°43' W 074°02'  
2017-Nov-23 00:02N 40°44' W 074°02'0 3.3
2017-Nov-23 00:00N 40°44' W 074°02'1 2.4
2017-Nov-22 23:31N 40°43' W 074°01'1 2.5
2017-Nov-22 23:00N 40°44' W 074°02'1 2.4
2017-Nov-22 22:31N 40°43' W 074°01'1 2.4
2017-Nov-22 22:00N 40°44' W 074°02'1 2.5
2017-Nov-22 21:30N 40°43' W 074°01'1 2.5
2017-Nov-22 21:00N 40°44' W 074°02'1 2.5
2017-Nov-22 20:31N 40°43' W 074°01'0 0.2
2017-Nov-22 20:00N 40°43' W 074°01'  
Track history (hours):
 
Tides and Currents Weather Stations Pressure Air Temp Water Temp Dewpoint Dewpoint Depression Visibility Wind Speed Wind Dir Waves Ship Positions

Port Imperial New Jersey

Owner: PORT IMPERIAL FERRY CORP, WEEHAWKEN, NJ. More information available from US FCC via Universal Licensing System and Coast Guard Vessel Documentation Center.

Last reported at 2017-Nov-29 02:18 UTC. Time now 2018-Feb-23 18:38 UTC.
Position N 40°44' W 074°02'.
Warning: this ship's position is months out of date.

Date/timePositionNaut miles runAvg speedWind from/ knotsBaromVisibWave heightAir tempDewpointWater temp
2017-Nov-29 02:18N 40°44' W 074°02'1 4.0
2017-Nov-29 02:00N 40°43' W 074°01'0 0.0
2017-Nov-29 01:30N 40°43' W 074°01'0 0.0
2017-Nov-29 01:00N 40°43' W 074°01'0 0.0
2017-Nov-29 00:30N 40°43' W 074°01'0 0.0
2017-Nov-29 00:01N 40°43' W 074°01'0 0.0
2017-Nov-28 23:30N 40°43' W 074°01'0 0.1
2017-Nov-28 23:00N 40°43' W 074°01'0 0.1
2017-Nov-28 22:30N 40°43' W 074°01'0 0.2
2017-Nov-28 22:00N 40°43' W 074°01'0 0.1
2017-Nov-28 21:30N 40°43' W 074°01'0 0.1
2017-Nov-28 21:00N 40°43' W 074°01'0 0.3
2017-Nov-28 20:31N 40°43' W 074°01'0 0.4
2017-Nov-28 20:01N 40°43' W 074°01'0 0.5
2017-Nov-28 19:30N 40°43' W 074°01'0 0.3
2017-Nov-28 19:00N 40°43' W 074°01'0 0.3
2017-Nov-28 18:30N 40°43' W 074°01'0 0.2
2017-Nov-28 18:00N 40°43' W 074°01'0 0.0
2017-Nov-28 17:30N 40°43' W 074°01'0 0.1
2017-Nov-28 17:00N 40°43' W 074°01'0 0.1
2017-Nov-28 16:30N 40°43' W 074°01'0 0.1
2017-Nov-28 16:00N 40°43' W 074°01'0 0.2
2017-Nov-28 15:00N 40°43' W 074°01'0 0.3
2017-Nov-28 14:30N 40°43' W 074°01'0 0.4
2017-Nov-28 14:00N 40°43' W 074°01'0 0.6
2017-Nov-28 13:30N 40°43' W 074°01'0 0.2
2017-Nov-28 13:00N 40°43' W 074°01'0 0.1
2017-Nov-28 12:30N 40°43' W 074°01'0 0.3
2017-Nov-28 12:00N 40°43' W 074°01'1 1.3
2017-Nov-28 11:30N 40°43' W 074°02'3 6.3
2017-Nov-28 11:00N 40°46' W 074°01'0 0.0
2017-Nov-28 02:26N 40°46' W 074°01'4 8.2
2017-Nov-28 02:00N 40°43' W 074°01'0 0.1
2017-Nov-28 01:30N 40°43' W 074°01'0 0.3
2017-Nov-28 01:00N 40°43' W 074°01'0 0.9
2017-Nov-28 00:30N 40°43' W 074°02'0 0.9
2017-Nov-28 00:00N 40°43' W 074°01'0 0.1
2017-Nov-27 23:30N 40°43' W 074°01'0 0.1
2017-Nov-27 23:00N 40°43' W 074°01'0 0.2
2017-Nov-27 22:30N 40°43' W 074°01'0 0.1
2017-Nov-27 22:00N 40°43' W 074°01'0 0.1
2017-Nov-27 21:30N 40°43' W 074°01'0 0.3
2017-Nov-27 21:00N 40°43' W 074°01'0 0.1
2017-Nov-27 20:30N 40°43' W 074°01'0 0.1
2017-Nov-27 20:00N 40°43' W 074°01'0 0.1
2017-Nov-27 19:30N 40°43' W 074°01'0 0.4
2017-Nov-27 19:00N 40°43' W 074°01'0 0.5
2017-Nov-27 18:30N 40°43' W 074°01'0 0.5
2017-Nov-27 18:00N 40°43' W 074°01'0 0.1
2017-Nov-27 17:30N 40°43' W 074°01'0 0.1
2017-Nov-27 17:00N 40°43' W 074°01'0 0.1
2017-Nov-27 16:30N 40°43' W 074°01'0 0.4
2017-Nov-27 16:00N 40°43' W 074°01'0 0.0
2017-Nov-27 15:30N 40°43' W 074°01'0 0.0
2017-Nov-27 15:01N 40°43' W 074°01'0 0.1
2017-Nov-27 14:30N 40°43' W 074°01'0 0.6
2017-Nov-27 14:00N 40°43' W 074°01'0 0.6
2017-Nov-27 13:30N 40°43' W 074°01'0 0.1
2017-Nov-27 13:00N 40°43' W 074°01'0 0.2
2017-Nov-27 12:30N 40°43' W 074°01'0 0.2
2017-Nov-27 12:00N 40°43' W 074°01'1 1.2
2017-Nov-27 11:30N 40°43' W 074°02'  
2017-Nov-23 00:02N 40°44' W 074°02'0 3.3
2017-Nov-23 00:00N 40°44' W 074°02'1 2.4
2017-Nov-22 23:31N 40°43' W 074°01'1 2.5
2017-Nov-22 23:00N 40°44' W 074°02'1 2.4
2017-Nov-22 22:31N 40°43' W 074°01'1 2.4
2017-Nov-22 22:00N 40°44' W 074°02'1 2.5
2017-Nov-22 21:30N 40°43' W 074°01'1 2.5
2017-Nov-22 21:00N 40°44' W 074°02'1 2.5
2017-Nov-22 20:31N 40°43' W 074°01'0 0.2
2017-Nov-22 20:00N 40°43' W 074°01'  

Dump ship's entire track history